Time;durP1;ratioP1;P1;durP2;ratioP2;P2;SDS_P1;SDS_P2;PMS_P1;PMS_P2;Temp;Humidity;BMP_temperature;BMP_pressure;BME280_temperature;BME280_humidity;BME280_pressure;Samples;Min_cycle;Max_cycle;Signal;HPM_P1;HPM_P2
2021/11/25 00:00:07;;;;;;;14.93;12.40;;;3.00;88.80;;;;;;5096673;28;20204;-87
2021/11/25 00:02:32;;;;;;;17.27;13.20;;;3.00;88.10;;;;;;5099388;28;20613;-87
2021/11/25 00:04:58;;;;;;;15.27;13.37;;;3.00;87.20;;;;;;5088230;28;20234;-87
2021/11/25 00:07:24;;;;;;;14.27;12.67;;;3.00;87.60;;;;;;5085844;28;20211;-87
2021/11/25 00:09:50;;;;;;;14.37;11.80;;;2.90;88.20;;;;;;5081685;28;20551;-87
2021/11/25 00:12:16;;;;;;;15.93;12.80;;;2.90;89.30;;;;;;5093103;28;20175;-87
2021/11/25 00:14:43;;;;;;;14.50;12.30;;;2.80;90.00;;;;;;5098880;28;20662;-87
2021/11/25 00:17:09;;;;;;;17.67;14.07;;;2.90;89.90;;;;;;5097983;28;20191;-87
2021/11/25 00:19:35;;;;;;;17.37;13.63;;;2.90;89.40;;;;;;5097954;28;20220;-87
2021/11/25 00:22:01;;;;;;;18.30;14.50;;;2.80;88.80;;;;;;5094546;28;20256;-87
2021/11/25 00:24:27;;;;;;;18.83;12.87;;;2.70;89.30;;;;;;5097201;28;20218;-87
2021/11/25 00:26:52;;;;;;;17.90;13.33;;;2.70;90.00;;;;;;5090592;28;20244;-87
2021/11/25 00:29:18;;;;;;;17.70;14.10;;;2.70;90.10;;;;;;5067707;28;20211;-87
2021/11/25 00:31:44;;;;;;;16.87;13.73;;;2.60;91.90;;;;;;5082694;28;20186;-87
2021/11/25 00:34:10;;;;;;;15.83;12.97;;;2.30;93.50;;;;;;5080441;28;20186;-87
2021/11/25 00:36:35;;;;;;;18.07;13.67;;;2.30;94.70;;;;;;5092382;28;20569;-87
2021/11/25 00:39:01;;;;;;;16.03;12.97;;;2.60;93.30;;;;;;5093464;28;20277;-87
2021/11/25 00:41:27;;;;;;;14.73;13.13;;;2.70;91.90;;;;;;5080992;28;20725;-87
2021/11/25 00:43:53;;;;;;;17.37;13.90;;;2.90;91.30;;;;;;5076420;28;20183;-87
2021/11/25 00:46:19;;;;;;;16.20;12.70;;;2.70;91.80;;;;;;5090869;28;20199;-87
2021/11/25 00:48:44;;;;;;;15.80;12.70;;;2.70;93.00;;;;;;5080076;28;20207;-87
2021/11/25 00:51:10;;;;;;;14.37;11.97;;;2.80;91.40;;;;;;5096871;28;20251;-87
2021/11/25 00:53:36;;;;;;;16.97;13.03;;;3.00;91.10;;;;;;5094575;28;20186;-87
2021/11/25 00:56:03;;;;;;;13.73;12.33;;;3.10;89.80;;;;;;5094800;28;20228;-87
2021/11/25 00:58:28;;;;;;;14.33;12.20;;;3.10;89.90;;;;;;5098374;28;20190;-87
2021/11/25 01:00:54;;;;;;;15.03;12.47;;;3.10;89.80;;;;;;5092828;28;20770;-87
2021/11/25 01:03:20;;;;;;;16.47;13.47;;;3.10;89.60;;;;;;5059667;28;20195;-88
2021/11/25 01:05:47;;;;;;;14.43;12.20;;;3.10;89.50;;;;;;5078059;28;20180;-88
2021/11/25 01:08:13;;;;;;;14.70;12.70;;;3.10;89.30;;;;;;5097919;28;20203;-87
2021/11/25 01:10:39;;;;;;;15.80;13.20;;;3.10;89.40;;;;;;5092232;28;20309;-87
2021/11/25 01:13:05;;;;;;;15.00;12.60;;;2.90;90.40;;;;;;5080032;28;20214;-87
2021/11/25 01:15:33;;;;;;;14.60;12.43;;;2.70;92.20;;;;;;5087001;28;20203;-88
2021/11/25 01:18:02;;;;;;;17.57;13.03;;;2.80;92.70;;;;;;5106370;28;20188;-88
2021/11/25 01:20:28;;;;;;;14.67;12.57;;;2.80;92.00;;;;;;5085796;28;20224;-87
2021/11/25 01:22:54;;;;;;;13.37;11.90;;;3.00;91.30;;;;;;5076181;28;20196;-87
2021/11/25 01:25:20;;;;;;;19.67;14.13;;;3.00;90.20;;;;;;5097918;28;20198;-88
2021/11/25 01:27:46;;;;;;;16.17;12.47;;;2.90;91.10;;;;;;5104830;28;20218;-87
2021/11/25 01:30:12;;;;;;;14.67;12.23;;;2.90;91.50;;;;;;5099817;28;20220;-88
2021/11/25 01:32:39;;;;;;;16.00;12.87;;;3.00;91.00;;;;;;5081201;28;20222;-87
2021/11/25 01:35:06;;;;;;;16.97;12.80;;;3.20;90.00;;;;;;5082678;28;20678;-87
2021/11/25 01:37:32;;;;;;;15.00;13.10;;;3.30;88.80;;;;;;5059033;28;20187;-87
2021/11/25 01:39:58;;;;;;;15.70;11.77;;;3.30;88.90;;;;;;5079987;28;20750;-87
2021/11/25 01:42:24;;;;;;;13.13;11.73;;;3.40;89.30;;;;;;5078329;28;20192;-87
2021/11/25 01:44:50;;;;;;;14.37;12.37;;;3.40;89.40;;;;;;5078299;28;20196;-87
2021/11/25 01:47:16;;;;;;;14.83;12.60;;;3.40;88.80;;;;;;5078091;28;20634;-87
2021/11/25 01:49:42;;;;;;;16.33;12.73;;;3.40;88.60;;;;;;5079279;28;20717;-87
2021/11/25 01:52:08;;;;;;;15.63;13.17;;;3.40;88.50;;;;;;5080342;28;20207;-87
2021/11/25 01:54:34;;;;;;;14.43;12.87;;;3.30;88.60;;;;;;5087417;28;20197;-87
2021/11/25 01:56:59;;;;;;;18.27;13.27;;;3.30;88.70;;;;;;5090896;28;20191;-87
2021/11/25 01:59:26;;;;;;;15.37;12.43;;;3.20;90.00;;;;;;5090745;28;20320;-87
2021/11/25 02:01:53;;;;;;;17.33;13.37;;;3.10;90.10;;;;;;5077968;28;20202;-87
2021/11/25 02:04:19;;;;;;;17.27;13.73;;;3.10;89.40;;;;;;5090709;28;20261;-87
2021/11/25 02:06:45;;;;;;;16.83;13.63;;;3.10;88.90;;;;;;5082769;28;20191;-87
2021/11/25 02:09:11;;;;;;;16.57;13.63;;;3.00;89.30;;;;;;5082345;28;20539;-87
2021/11/25 02:11:38;;;;;;;16.73;14.00;;;2.80;91.80;;;;;;5098546;28;20201;-87
2021/11/25 02:14:04;;;;;;;16.57;14.20;;;2.80;91.90;;;;;;5081035;28;20179;-87
2021/11/25 02:16:30;;;;;;;14.40;12.50;;;2.80;92.00;;;;;;5085727;28;20194;-87
2021/11/25 02:18:59;;;;;;;18.83;13.47;;;2.90;91.50;;;;;;5097395;28;20598;-87
2021/11/25 02:21:28;;;;;;;19.77;14.90;;;3.10;89.80;;;;;;5065193;28;20215;-87
2021/11/25 02:23:53;;;;;;;17.00;13.03;;;3.00;89.60;;;;;;5085309;28;20206;-87
2021/11/25 02:26:19;;;;;;;16.93;13.40;;;3.10;89.20;;;;;;5065034;28;20195;-87
2021/11/25 02:28:45;;;;;;;18.07;14.87;;;3.00;89.50;;;;;;5097466;28;20218;-87
2021/11/25 02:31:11;;;;;;;17.67;13.97;;;2.90;89.80;;;;;;5094603;28;20555;-87
2021/11/25 02:33:41;;;;;;;15.63;12.90;;;2.90;90.00;;;;;;5097568;28;20199;-87
2021/11/25 02:36:08;;;;;;;17.67;13.97;;;2.90;90.50;;;;;;5090250;28;20210;-87
2021/11/25 02:38:34;;;;;;;16.80;13.67;;;2.80;90.40;;;;;;5091265;28;20321;-87
2021/11/25 02:41:00;;;;;;;19.03;13.93;;;2.80;89.40;;;;;;5086054;28;20245;-87
2021/11/25 02:43:28;;;;;;;17.23;12.80;;;2.80;89.70;;;;;;5096681;28;20183;-87
2021/11/25 02:46:06;;;;;;;17.80;13.27;;;2.90;90.50;;;;;;5093149;28;20195;-87
2021/11/25 02:48:39;;;;;;;17.13;13.43;;;2.90;89.80;;;;;;5081456;28;20310;-87
2021/11/25 02:51:07;;;;;;;16.33;13.60;;;2.80;90.60;;;;;;5097904;28;20195;-87
2021/11/25 02:53:34;;;;;;;19.00;14.23;;;2.80;92.10;;;;;;5094663;28;20232;-87
2021/11/25 02:56:12;;;;;;;19.93;14.57;;;2.80;91.80;;;;;;5096160;28;20194;-87
2021/11/25 02:58:38;;;;;;;17.37;13.87;;;2.90;91.30;;;;;;5096701;28;20209;-87
2021/11/25 03:01:24;;;;;;;19.37;15.23;;;2.90;91.50;;;;;;5092950;28;20217;-87
2021/11/25 03:03:50;;;;;;;16.77;12.70;;;3.00;90.30;;;;;;5075583;28;20186;-87
2021/11/25 03:06:16;;;;;;;16.47;13.07;;;3.10;89.80;;;;;;5098125;28;20187;-87
2021/11/25 03:08:43;;;;;;;17.27;13.47;;;3.20;89.00;;;;;;5101612;28;20399;-87
2021/11/25 03:11:12;;;;;;;17.27;13.97;;;3.30;87.90;;;;;;5094390;28;20199;-87
2021/11/25 03:13:43;;;;;;;17.10;13.37;;;3.20;87.80;;;;;;5103512;28;20281;-87
2021/11/25 03:16:11;;;;;;;16.00;13.43;;;3.30;88.00;;;;;;5094903;28;20198;-87
2021/11/25 03:18:37;;;;;;;16.93;13.33;;;3.30;88.30;;;;;;5095747;28;20235;-87
2021/11/25 03:21:03;;;;;;;16.00;13.03;;;3.30;88.30;;;;;;5076937;28;20206;-87
2021/11/25 03:23:32;;;;;;;17.43;14.03;;;3.40;87.60;;;;;;5092786;28;20207;-87
2021/11/25 03:25:59;;;;;;;16.37;13.03;;;3.50;86.90;;;;;;5095775;28;20179;-88
2021/11/25 03:28:25;;;;;;;16.00;12.73;;;3.40;86.60;;;;;;5083642;28;20200;-87
2021/11/25 03:30:55;;;;;;;18.27;14.77;;;3.50;86.60;;;;;;5085873;28;20230;-87
2021/11/25 03:33:24;;;;;;;16.33;13.67;;;3.50;85.90;;;;;;5083582;28;20187;-87
2021/11/25 03:35:50;;;;;;;17.07;13.93;;;3.50;86.50;;;;;;5079195;28;20190;-87
2021/11/25 03:38:15;;;;;;;16.03;12.23;;;3.50;86.80;;;;;;5065786;28;20282;-88
2021/11/25 03:40:42;;;;;;;16.27;13.30;;;3.50;87.00;;;;;;5089031;28;20620;-87
2021/11/25 03:43:08;;;;;;;16.40;12.40;;;3.50;86.50;;;;;;5075563;28;20727;-87
2021/11/25 03:45:35;;;;;;;17.60;14.23;;;3.60;85.60;;;;;;5095105;28;20214;-87
2021/11/25 03:48:00;;;;;;;15.27;12.80;;;3.60;85.00;;;;;;5072588;28;20215;-87
2021/11/25 03:50:26;;;;;;;16.83;13.27;;;3.50;85.10;;;;;;5086884;28;20278;-87
2021/11/25 03:52:52;;;;;;;17.33;13.43;;;3.50;86.80;;;;;;5103215;28;20187;-87
2021/11/25 03:55:20;;;;;;;16.10;13.57;;;3.50;87.30;;;;;;5095545;28;20181;-88
2021/11/25 03:57:47;;;;;;;15.80;12.43;;;3.50;87.40;;;;;;5106396;28;20179;-88
2021/11/25 04:00:16;;;;;;;14.57;12.93;;;3.40;87.20;;;;;;5097842;28;20257;-87
2021/11/25 04:02:42;;;;;;;18.17;13.00;;;3.40;87.50;;;;;;5093850;28;20195;-87
2021/11/25 04:05:09;;;;;;;16.70;13.13;;;3.50;86.90;;;;;;5113145;28;20172;-88
2021/11/25 04:07:35;;;;;;;14.07;12.57;;;3.50;86.60;;;;;;5116181;28;20207;-88
2021/11/25 04:10:01;;;;;;;16.97;13.83;;;3.50;86.10;;;;;;5087507;28;20215;-87
2021/11/25 04:12:27;;;;;;;14.87;12.27;;;3.50;86.10;;;;;;5082497;28;20222;-87
2021/11/25 04:14:53;;;;;;;20.07;13.83;;;3.50;86.20;;;;;;5077750;28;20635;-87
2021/11/25 04:17:21;;;;;;;16.93;13.43;;;3.50;85.50;;;;;;5093312;28;20194;-87
2021/11/25 04:19:48;;;;;;;14.80;12.63;;;3.40;85.60;;;;;;5095554;28;20642;-87
2021/11/25 04:22:14;;;;;;;16.23;13.30;;;3.50;85.60;;;;;;5096569;28;20196;-87
2021/11/25 04:24:40;;;;;;;16.23;14.20;;;3.50;85.30;;;;;;5079737;28;20191;-88
2021/11/25 04:27:06;;;;;;;16.83;13.53;;;3.60;84.90;;;;;;5086278;28;20187;-87
2021/11/25 04:29:32;;;;;;;17.87;13.87;;;3.60;84.30;;;;;;5093603;28;20234;-87
2021/11/25 04:37:26;;;;;;;15.27;12.07;;;3.40;86.40;;;;;;5085880;28;20217;-87
2021/11/25 04:39:52;;;;;;;17.10;14.10;;;3.50;85.90;;;;;;5092857;28;20697;-87
2021/11/25 04:42:18;;;;;;;17.30;14.10;;;3.50;85.90;;;;;;5079846;28;20191;-87
2021/11/25 04:44:45;;;;;;;19.20;14.07;;;3.50;85.30;;;;;;5071466;28;20258;-87
2021/11/25 04:47:12;;;;;;;17.03;13.30;;;3.50;85.70;;;;;;5094570;28;20206;-87
2021/11/25 04:49:37;;;;;;;17.87;13.77;;;3.50;86.10;;;;;;5095413;28;20233;-86
2021/11/25 04:52:04;;;;;;;16.47;13.60;;;3.50;86.70;;;;;;5086724;28;20187;-86
2021/11/25 04:54:29;;;;;;;15.23;12.17;;;3.40;87.80;;;;;;5082039;28;20221;-87
2021/11/25 04:56:55;;;;;;;16.23;12.43;;;3.40;88.50;;;;;;5088916;28;20178;-87
2021/11/25 04:59:21;;;;;;;15.53;12.70;;;3.50;88.20;;;;;;5092527;28;20206;-87
2021/11/25 05:01:47;;;;;;;14.17;10.73;;;3.50;87.70;;;;;;5091244;28;20191;-87
2021/11/25 05:04:13;;;;;;;14.23;11.10;;;3.60;87.70;;;;;;5069436;28;20191;-87
2021/11/25 05:06:38;;;;;;;15.23;11.67;;;3.70;87.60;;;;;;5091159;28;20183;-87
2021/11/25 05:09:04;;;;;;;16.30;12.67;;;3.70;87.30;;;;;;5089366;28;20272;-87
2021/11/25 05:11:30;;;;;;;15.37;13.13;;;3.60;87.00;;;;;;5094415;28;20669;-87
2021/11/25 05:13:56;;;;;;;14.10;11.67;;;3.40;89.10;;;;;;5095779;28;20179;-87
2021/11/25 05:16:21;;;;;;;14.20;12.47;;;3.40;89.50;;;;;;5091938;28;20241;-87
2021/11/25 05:18:47;;;;;;;14.97;11.80;;;3.50;89.00;;;;;;5094561;28;20234;-87
2021/11/25 05:21:13;;;;;;;15.03;12.73;;;3.50;88.80;;;;;;5085651;28;20206;-87
2021/11/25 05:23:39;;;;;;;13.53;11.57;;;3.60;88.50;;;;;;5092434;28;20846;-87
2021/11/25 05:26:05;;;;;;;15.30;12.77;;;3.50;88.10;;;;;;5091380;28;20195;-86
2021/11/25 05:28:30;;;;;;;15.43;13.60;;;3.50;87.50;;;;;;5093623;28;20227;-87
2021/11/25 05:30:56;;;;;;;14.03;11.40;;;3.50;87.70;;;;;;5066186;28;20203;-87
2021/11/25 05:33:22;;;;;;;15.27;12.87;;;3.50;88.90;;;;;;5088784;28;20194;-86
2021/11/25 05:35:48;;;;;;;26.13;14.40;;;3.40;88.60;;;;;;5091662;28;20252;-87
2021/11/25 05:38:14;;;;;;;17.70;15.23;;;3.40;89.00;;;;;;5091183;28;20234;-87
2021/11/25 05:40:40;;;;;;;16.10;13.80;;;3.40;88.40;;;;;;5087870;28;20214;-88
2021/11/25 05:43:06;;;;;;;15.47;12.80;;;3.40;88.90;;;;;;5085485;28;20214;-87
2021/11/25 05:45:32;;;;;;;14.97;12.70;;;3.30;89.50;;;;;;5092628;28;20210;-87
2021/11/25 05:47:57;;;;;;;20.37;14.13;;;3.40;89.60;;;;;;5092931;28;20285;-86
2021/11/25 05:50:25;;;;;;;17.40;14.23;;;3.40;88.50;;;;;;5094125;28;20225;-86
2021/11/25 05:52:54;;;;;;;23.03;15.10;;;3.30;88.60;;;;;;5076796;28;20191;-86
2021/11/25 05:55:22;;;;;;;17.27;13.47;;;3.30;89.30;;;;;;5094306;28;20260;-86
2021/11/25 05:57:48;;;;;;;18.40;14.60;;;3.30;89.10;;;;;;5094754;28;20198;-86
2021/11/25 06:00:14;;;;;;;18.03;14.87;;;3.20;88.90;;;;;;5094140;28;20211;-86
2021/11/25 06:02:43;;;;;;;17.17;13.83;;;3.20;89.30;;;;;;5073538;28;20788;-86
2021/11/25 06:05:09;;;;;;;18.80;14.17;;;3.20;89.10;;;;;;5094514;28;20221;-88
2021/11/25 06:07:35;;;;;;;18.00;14.07;;;3.10;89.60;;;;;;5073847;28;20219;-87
2021/11/25 06:10:01;;;;;;;18.60;14.93;;;3.10;90.20;;;;;;5078731;28;20210;-87
2021/11/25 06:12:26;;;;;;;17.60;13.80;;;3.10;90.50;;;;;;5096725;28;20768;-87
2021/11/25 06:14:52;;;;;;;19.60;14.63;;;3.10;90.30;;;;;;5097398;28;20183;-87
2021/11/25 06:17:18;;;;;;;18.17;14.33;;;3.20;89.90;;;;;;5106689;28;20202;-87
2021/11/25 06:19:44;;;;;;;17.53;14.90;;;3.20;89.40;;;;;;5100134;28;20240;-87
2021/11/25 06:22:09;;;;;;;19.13;15.47;;;3.30;89.10;;;;;;5092295;28;20278;-87
2021/11/25 06:24:35;;;;;;;20.93;15.60;;;3.30;88.50;;;;;;5091850;28;20244;-87
2021/11/25 06:27:01;;;;;;;17.93;14.30;;;3.30;88.60;;;;;;5092419;28;20209;-87
2021/11/25 06:29:26;;;;;;;17.63;13.37;;;3.20;88.90;;;;;;5086833;28;20215;-87
2021/11/25 06:31:52;;;;;;;19.57;15.17;;;3.30;88.80;;;;;;5073977;28;20195;-87
2021/11/25 06:34:18;;;;;;;19.43;15.47;;;3.20;88.30;;;;;;5090663;28;20180;-87
2021/11/25 06:36:44;;;;;;;26.20;16.40;;;3.20;88.10;;;;;;5098194;28;20237;-88
2021/11/25 06:39:10;;;;;;;22.43;15.53;;;3.40;90.90;;;;;;5103390;28;20222;-87
2021/11/25 06:41:37;;;;;;;18.90;15.90;;;3.50;89.20;;;;;;5093978;28;20206;-87
2021/11/25 06:44:03;;;;;;;17.77;14.20;;;3.40;87.30;;;;;;5095095;28;20187;-88
2021/11/25 06:46:28;;;;;;;21.03;16.20;;;3.50;87.30;;;;;;5107937;28;20212;-87
2021/11/25 06:48:54;;;;;;;22.07;16.30;;;3.50;87.40;;;;;;5110731;28;20206;-87
2021/11/25 06:51:20;;;;;;;25.00;16.20;;;3.50;86.80;;;;;;5096360;28;20222;-88
2021/11/25 06:53:46;;;;;;;22.07;17.03;;;3.40;86.50;;;;;;5091525;28;20203;-87
2021/11/25 06:56:12;;;;;;;21.13;16.43;;;3.30;87.20;;;;;;5069377;28;20206;-87
2021/11/25 06:58:38;;;;;;;20.67;15.37;;;3.30;88.10;;;;;;5096654;28;20206;-87
2021/11/25 07:01:07;;;;;;;23.03;16.67;;;3.30;88.50;;;;;;5095860;28;20678;-87
2021/11/25 07:03:34;;;;;;;21.70;16.30;;;3.20;88.60;;;;;;5091222;28;20218;-87
2021/11/25 07:06:01;;;;;;;32.73;17.97;;;3.20;88.70;;;;;;5089276;28;20738;-87
2021/11/25 07:08:27;;;;;;;21.30;15.33;;;3.10;89.20;;;;;;5096188;28;20225;-87
2021/11/25 07:10:53;;;;;;;20.63;15.63;;;3.10;90.70;;;;;;5091155;28;20218;-87
2021/11/25 07:13:19;;;;;;;20.43;15.53;;;3.00;90.50;;;;;;5076227;28;20968;-87
2021/11/25 07:15:45;;;;;;;21.57;17.20;;;3.10;90.70;;;;;;5094991;28;20207;-87
2021/11/25 07:18:10;;;;;;;21.33;15.40;;;3.10;91.00;;;;;;5085793;28;20286;-87
2021/11/25 07:20:36;;;;;;;21.77;15.17;;;3.10;90.20;;;;;;5090740;28;20302;-87
2021/11/25 07:23:02;;;;;;;21.23;15.50;;;3.20;89.90;;;;;;5092768;28;20186;-87
2021/11/25 07:25:28;;;;;;;21.90;16.90;;;3.30;89.50;;;;;;5090918;28;20191;-87
2021/11/25 07:27:55;;;;;;;20.87;14.70;;;3.30;88.60;;;;;;5092222;28;20250;-88
2021/11/25 07:30:21;;;;;;;20.53;15.97;;;3.30;88.90;;;;;;5092028;28;20296;-87
2021/11/25 07:32:47;;;;;;;19.77;15.27;;;3.30;89.00;;;;;;5071279;28;20285;-87
2021/11/25 07:35:14;;;;;;;32.20;16.63;;;3.30;88.40;;;;;;5093672;28;20772;-87
2021/11/25 07:37:40;;;;;;;18.63;15.13;;;3.40;88.30;;;;;;5092345;28;20207;-87
2021/11/25 07:40:07;;;;;;;21.73;16.03;;;3.30;88.50;;;;;;5087275;28;20281;-87
2021/11/25 07:42:33;;;;;;;19.23;14.80;;;3.30;88.10;;;;;;5072510;28;20210;-87
2021/11/25 07:44:59;;;;;;;22.50;15.33;;;3.30;88.00;;;;;;5089347;28;20228;-87
2021/11/25 07:47:32;;;;;;;21.50;15.57;;;3.30;87.90;;;;;;5068614;28;20215;-87
2021/11/25 07:49:58;;;;;;;20.43;14.83;;;3.20;88.50;;;;;;5090485;28;20245;-87
2021/11/25 07:52:24;;;;;;;22.67;16.27;;;3.20;88.90;;;;;;5086452;28;20261;-87
2021/11/25 07:54:51;;;;;;;22.60;15.73;;;3.20;88.40;;;;;;5089533;28;20654;-87
2021/11/25 07:57:16;;;;;;;20.27;15.13;;;3.30;88.10;;;;;;5092967;28;20248;-87
2021/11/25 07:59:42;;;;;;;18.77;14.80;;;3.30;87.70;;;;;;5088840;28;20235;-87
2021/11/25 08:02:08;;;;;;;22.33;15.77;;;3.20;87.50;;;;;;5086063;28;20191;-87
2021/11/25 08:04:34;;;;;;;21.87;15.80;;;3.20;88.10;;;;;;5086051;28;20191;-87
2021/11/25 08:06:59;;;;;;;22.70;15.83;;;3.30;87.80;;;;;;5091413;28;20206;-87
2021/11/25 08:09:25;;;;;;;17.93;14.70;;;3.40;87.90;;;;;;5088549;28;20222;-87
2021/11/25 08:11:51;;;;;;;21.33;16.23;;;3.40;87.10;;;;;;5093092;28;20266;-84
2021/11/25 08:14:16;;;;;;;28.77;20.70;;;3.50;86.90;;;;;;5092706;28;20199;-85
2021/11/25 08:16:42;;;;;;;22.40;18.57;;;3.50;86.70;;;;;;5076256;28;20203;-85
2021/11/25 08:19:08;;;;;;;21.40;15.80;;;3.50;86.30;;;;;;5076828;28;20202;-83
2021/11/25 08:21:34;;;;;;;20.40;15.60;;;3.40;86.30;;;;;;5098039;28;20538;-83
2021/11/25 08:24:00;;;;;;;20.50;16.27;;;3.40;86.50;;;;;;5071882;28;20199;-85
2021/11/25 08:26:26;;;;;;;20.47;15.60;;;3.50;87.30;;;;;;5059164;28;20821;-85
2021/11/25 08:28:51;;;;;;;23.07;18.30;;;3.50;86.60;;;;;;5100737;28;20238;-85
2021/11/25 08:31:17;;;;;;;24.90;17.60;;;3.40;86.90;;;;;;5097384;28;20221;-85
2021/11/25 08:33:43;;;;;;;21.80;16.20;;;3.30;86.80;;;;;;5098511;28;20191;-85
2021/11/25 08:36:08;;;;;;;21.07;15.83;;;3.20;86.90;;;;;;5100800;28;20697;-85
2021/11/25 08:38:34;;;;;;;22.93;17.23;;;3.30;87.00;;;;;;5096628;28;20195;-86
2021/11/25 08:41:01;;;;;;;21.53;16.60;;;3.30;86.90;;;;;;5085415;28;20234;-83
2021/11/25 08:43:27;;;;;;;21.57;15.30;;;3.40;86.20;;;;;;5109221;28;20198;-84
2021/11/25 08:45:53;;;;;;;20.57;16.07;;;3.40;86.20;;;;;;5087298;28;20183;-86
2021/11/25 08:48:19;;;;;;;22.33;15.80;;;3.40;85.90;;;;;;5090415;28;20242;-86
2021/11/25 08:50:45;;;;;;;22.73;15.90;;;3.40;85.90;;;;;;5090247;28;20230;-86
2021/11/25 08:53:16;;;;;;;22.53;17.00;;;3.40;85.70;;;;;;5091906;28;20236;-86
2021/11/25 08:55:42;;;;;;;23.53;17.37;;;3.40;85.80;;;;;;5072517;28;20187;-86
2021/11/25 08:58:07;;;;;;;22.13;15.30;;;3.40;86.00;;;;;;5086326;28;20626;-86
2021/11/25 09:00:34;;;;;;;24.60;17.57;;;3.40;85.80;;;;;;5054522;28;20643;-86
2021/11/25 09:03:01;;;;;;;23.57;17.57;;;3.40;85.60;;;;;;5090728;28;20617;-87
2021/11/25 09:05:28;;;;;;;24.17;18.23;;;3.50;86.00;;;;;;5091364;28;20639;-86
2021/11/25 09:07:54;;;;;;;22.80;17.40;;;3.50;85.70;;;;;;5092656;28;20217;-86
2021/11/25 09:10:20;;;;;;;23.03;16.57;;;3.60;85.90;;;;;;5097289;28;20287;-87
2021/11/25 09:12:46;;;;;;;28.07;17.97;;;3.60;86.20;;;;;;5092454;28;20187;-86
2021/11/25 09:15:12;;;;;;;25.63;19.00;;;3.60;84.80;;;;;;5097666;28;20194;-86
2021/11/25 09:17:38;;;;;;;23.87;19.60;;;3.60;83.40;;;;;;5109212;28;20314;-86
2021/11/25 09:20:04;;;;;;;24.87;19.10;;;3.60;83.10;;;;;;5105344;28;20210;-86
2021/11/25 09:22:31;;;;;;;25.07;18.53;;;3.70;83.40;;;;;;5090861;28;20202;-86
2021/11/25 09:24:57;;;;;;;34.73;25.27;;;3.80;82.70;;;;;;5110765;28;20198;-86
2021/11/25 09:27:23;;;;;;;28.40;22.53;;;3.70;82.30;;;;;;5110200;28;20250;-86
2021/11/25 09:29:48;;;;;;;29.97;24.53;;;3.80;81.40;;;;;;5104813;28;20694;-86
2021/11/25 09:32:14;;;;;;;26.07;20.57;;;3.80;81.20;;;;;;5101365;28;20199;-86
2021/11/25 09:34:40;;;;;;;28.73;20.73;;;3.70;81.50;;;;;;5099785;28;20244;-86
2021/11/25 09:37:07;;;;;;;28.73;21.87;;;3.80;80.80;;;;;;5095189;28;20549;-86
2021/11/25 09:39:33;;;;;;;33.60;23.73;;;3.80;81.00;;;;;;5083100;28;20294;-86
2021/11/25 09:41:59;;;;;;;29.60;21.03;;;3.80;80.90;;;;;;5089263;28;20531;-86
2021/11/25 09:44:25;;;;;;;31.57;21.23;;;3.80;80.80;;;;;;5070695;28;20240;-86
2021/11/25 09:46:54;;;;;;;22.40;18.90;;;3.90;79.80;;;;;;5067316;28;20756;-86
2021/11/25 09:49:22;;;;;;;41.33;21.93;;;3.90;80.50;;;;;;5084621;28;20204;-87
2021/11/25 09:51:49;;;;;;;23.87;20.30;;;3.80;80.50;;;;;;5088233;28;20210;-86
2021/11/25 09:54:14;;;;;;;25.40;19.97;;;3.80;81.40;;;;;;5086217;28;20195;-86
2021/11/25 09:56:41;;;;;;;24.00;19.60;;;3.80;81.10;;;;;;5085927;28;20193;-86
2021/11/25 09:59:07;;;;;;;26.27;21.00;;;4.00;79.50;;;;;;5089417;28;20733;-87
2021/11/25 10:01:34;;;;;;;36.80;23.27;;;4.10;78.40;;;;;;5070889;28;20694;-86
2021/11/25 10:04:00;;;;;;;25.13;20.23;;;4.10;78.40;;;;;;5090960;28;20195;-86
2021/11/25 10:06:36;;;;;;;28.33;20.47;;;4.00;78.40;;;;;;5087353;28;20281;-86
2021/11/25 10:09:04;;;;;;;24.83;20.67;;;4.00;78.50;;;;;;5069996;28;20218;-86
2021/11/25 10:11:35;;;;;;;28.03;21.33;;;4.00;80.00;;;;;;5088729;28;20222;-86
2021/11/25 10:14:12;;;;;;;23.97;19.47;;;4.00;79.10;;;;;;5092680;28;20183;-86
2021/11/25 10:16:43;;;;;;;26.30;19.83;;;4.00;78.80;;;;;;5072759;28;20201;-86
2021/11/25 10:19:16;;;;;;;22.43;18.10;;;4.00;78.90;;;;;;5090756;28;20196;-86
2021/11/25 10:21:52;;;;;;;25.00;20.03;;;4.00;79.80;;;;;;5073488;28;20264;-87
2021/11/25 10:24:48;;;;;;;26.83;20.43;;;4.00;78.80;;;;;;5092991;28;20179;-86
2021/11/25 10:27:26;;;;;;;25.27;18.30;;;3.90;79.00;;;;;;5071985;28;20209;-86
2021/11/25 10:30:15;;;;;;;25.80;19.63;;;4.00;79.30;;;;;;5094901;28;20215;-86
2021/11/25 10:32:41;;;;;;;28.10;20.20;;;4.00;79.90;;;;;;5092104;28;20199;-86
2021/11/25 10:35:30;;;;;;;26.33;19.73;;;4.00;79.70;;;;;;5086868;28;20526;-86
2021/11/25 10:40:32;;;;;;;28.07;21.07;;;4.10;79.10;;;;;;5093395;28;20263;-86
2021/11/25 10:42:58;;;;;;;26.53;18.90;;;4.10;78.90;;;;;;5091146;28;20631;-86
2021/11/25 10:45:24;;;;;;;31.90;22.50;;;4.10;79.70;;;;;;5087387;28;20274;-87
2021/11/25 10:48:05;;;;;;;30.93;21.37;;;4.20;78.60;;;;;;5083443;28;20250;-87
2021/11/25 10:50:33;;;;;;;30.33;23.27;;;4.30;78.10;;;;;;5087674;28;20207;-86
2021/11/25 10:53:08;;;;;;;27.57;22.13;;;4.30;77.70;;;;;;5094029;28;20267;-86
2021/11/25 10:55:34;;;;;;;23.63;20.03;;;4.30;77.40;;;;;;5091072;28;20228;-86
2021/11/25 10:58:02;;;;;;;27.60;22.80;;;4.30;77.50;;;;;;5090258;28;20198;-86
2021/11/25 11:00:37;;;;;;;27.10;19.70;;;4.30;77.40;;;;;;5089311;28;20211;-86
2021/11/25 11:03:08;;;;;;;25.93;20.17;;;4.20;77.00;;;;;;5072919;28;20198;-86
2021/11/25 11:05:52;;;;;;;25.63;19.20;;;4.10;77.40;;;;;;5091349;28;20212;-85
2021/11/25 11:08:19;;;;;;;25.87;21.10;;;4.00;77.70;;;;;;5110077;28;20211;-86
2021/11/25 11:10:57;;;;;;;31.27;21.57;;;4.00;77.80;;;;;;5090848;28;20211;-86
2021/11/25 11:16:11;;;;;;;39.97;30.93;;;4.00;76.70;;;;;;5075284;28;20195;-86
2021/11/25 11:18:47;;;;;;;25.53;19.57;;;4.10;77.20;;;;;;5090261;28;20195;-87
2021/11/25 11:21:40;;;;;;;33.70;18.57;;;4.10;76.80;;;;;;5089029;28;20925;-87
2021/11/25 11:24:09;;;;;;;22.67;17.70;;;4.10;77.70;;;;;;5070869;28;20175;-87
2021/11/25 11:26:50;;;;;;;22.70;18.20;;;4.20;76.70;;;;;;5087418;28;20222;-87
2021/11/25 11:29:22;;;;;;;25.13;18.83;;;4.20;76.40;;;;;;5072412;28;20226;-88
2021/11/25 11:31:51;;;;;;;24.97;19.40;;;4.20;76.00;;;;;;5075759;28;20275;-88
2021/11/25 11:34:18;;;;;;;26.03;20.17;;;4.20;75.30;;;;;;5093182;28;20183;-89
2021/11/25 11:36:48;;;;;;;25.43;19.27;;;4.20;75.20;;;;;;5091394;28;20205;-87
2021/11/25 11:39:16;;;;;;;25.60;19.50;;;4.20;75.00;;;;;;5076123;28;20667;-87
2021/11/25 11:41:44;;;;;;;22.83;19.23;;;4.20;75.20;;;;;;5096729;28;20191;-87
2021/11/25 11:44:10;;;;;;;23.83;18.97;;;4.10;74.40;;;;;;5089643;28;20198;-87
2021/11/25 11:46:37;;;;;;;22.83;19.23;;;4.10;75.10;;;;;;5090150;28;20214;-87
2021/11/25 11:49:05;;;;;;;25.43;19.67;;;4.10;75.50;;;;;;5094827;28;20215;-86
2021/11/25 11:51:34;;;;;;;23.90;18.40;;;4.00;75.20;;;;;;5072061;28;20199;-86
2021/11/25 11:54:01;;;;;;;25.00;20.07;;;4.00;75.40;;;;;;5088177;28;20277;-86
2021/11/25 11:56:40;;;;;;;26.13;20.83;;;4.00;75.40;;;;;;5076275;28;20195;-86
2021/11/25 11:59:08;;;;;;;25.73;20.67;;;3.90;75.50;;;;;;5101336;28;20179;-86
2021/11/25 12:01:35;;;;;;;25.13;19.97;;;3.80;74.60;;;;;;5097776;28;20677;-86
2021/11/25 12:04:06;;;;;;;31.80;23.17;;;3.80;75.50;;;;;;5087085;28;20199;-86
2021/11/25 12:06:42;;;;;;;29.50;20.43;;;3.80;75.30;;;;;;5106295;28;20167;-87
2021/11/25 12:09:23;;;;;;;27.07;20.53;;;3.80;75.60;;;;;;5108020;28;20210;-86
2021/11/25 12:12:08;;;;;;;24.77;20.23;;;3.90;75.20;;;;;;5085828;28;20210;-86
2021/11/25 12:14:34;;;;;;;27.73;22.07;;;3.90;75.10;;;;;;5093490;28;20195;-86
2021/11/25 12:17:10;;;;;;;27.07;21.23;;;3.90;75.10;;;;;;5075196;28;20283;-86
2021/11/25 12:19:43;;;;;;;30.73;22.30;;;3.90;74.80;;;;;;5075740;28;20209;-86
2021/11/25 12:22:12;;;;;;;28.57;21.87;;;3.90;74.60;;;;;;5071039;28;20710;-86
2021/11/25 12:24:50;;;;;;;29.03;23.13;;;3.70;75.20;;;;;;5085842;28;20234;-85
2021/11/25 12:27:27;;;;;;;38.90;32.07;;;3.70;75.70;;;;;;5092298;28;20178;-86
2021/11/25 12:30:12;;;;;;;31.30;23.23;;;3.70;75.50;;;;;;5092003;28;20238;-86
2021/11/25 12:32:41;;;;;;;32.43;24.13;;;3.70;75.90;;;;;;5093434;28;20187;-86
2021/11/25 12:35:24;;;;;;;29.67;22.30;;;3.80;76.00;;;;;;5108353;28;20261;-85
2021/11/25 12:38:00;;;;;;;28.57;21.87;;;3.90;74.80;;;;;;5086616;28;20211;-85
2021/11/25 12:40:26;;;;;;;31.83;22.83;;;3.90;74.90;;;;;;5099542;28;20669;-86
2021/11/25 12:43:20;;;;;;;28.40;21.60;;;4.00;74.60;;;;;;5092325;28;20202;-86
2021/11/25 12:45:58;;;;;;;32.03;24.83;;;3.80;74.30;;;;;;5082803;28;20219;-85
2021/11/25 12:48:29;;;;;;;30.23;22.20;;;3.70;75.60;;;;;;5091754;28;20233;-86